createdAt,value
2023-10-29T00:02:21.410Z,9.90
2023-10-29T00:04:49.043Z,9.90
2023-10-29T00:07:16.319Z,9.90
2023-10-29T00:09:43.597Z,9.90
2023-10-29T00:12:10.722Z,9.90
2023-10-29T00:14:38.070Z,9.90
2023-10-29T00:17:05.279Z,9.90
2023-10-29T00:19:33.528Z,9.90
2023-10-29T00:22:00.744Z,9.90
2023-10-29T00:24:27.869Z,9.90
2023-10-29T00:26:55.088Z,9.90
2023-10-29T00:29:22.455Z,9.90
2023-10-29T00:31:49.688Z,9.90
2023-10-29T00:34:16.769Z,10.00
2023-10-29T00:36:44.095Z,9.90
2023-10-29T00:39:11.183Z,10.00
2023-10-29T00:41:38.300Z,10.00
2023-10-29T00:44:05.627Z,10.00
2023-10-29T00:46:33.498Z,10.00
2023-10-29T00:49:02.027Z,9.90
2023-10-29T00:51:30.636Z,9.80
2023-10-29T00:53:59.143Z,9.80
2023-10-29T00:56:27.397Z,9.80
2023-10-29T00:58:54.845Z,9.80
2023-10-29T01:01:23.006Z,9.80
2023-10-29T01:03:50.642Z,9.80
2023-10-29T01:06:24.298Z,9.80
2023-10-29T01:08:52.815Z,9.90
2023-10-29T01:11:20.486Z,9.90
2023-10-29T01:13:53.811Z,9.90
2023-10-29T01:16:21.269Z,10.00
2023-10-29T01:18:48.774Z,10.00
2023-10-29T01:21:17.493Z,10.00
2023-10-29T01:23:47.877Z,10.00
2023-10-29T01:26:15.629Z,10.00
2023-10-29T01:28:43.009Z,10.10
2023-10-29T01:31:13.173Z,10.10
2023-10-29T01:33:41.956Z,10.10
2023-10-29T01:36:10.041Z,10.10
2023-10-29T01:38:38.029Z,10.10
2023-10-29T01:41:07.231Z,10.10
2023-10-29T01:43:38.637Z,10.20
2023-10-29T01:46:06.910Z,10.10
2023-10-29T01:48:40.006Z,10.10
2023-10-29T01:51:08.293Z,10.10
2023-10-29T01:53:35.578Z,10.10
2023-10-29T01:56:09.111Z,10.00
2023-10-29T01:58:39.394Z,10.00
2023-10-29T02:01:11.846Z,10.00
2023-10-29T02:03:39.939Z,9.90
2023-10-29T02:06:17.936Z,9.90
2023-10-29T02:08:46.047Z,10.00
2023-10-29T02:11:13.843Z,10.00
2023-10-29T02:13:41.393Z,10.00
2023-10-29T02:16:10.584Z,10.00
2023-10-29T02:18:38.015Z,10.00
2023-10-29T02:21:05.537Z,10.00
2023-10-29T02:23:32.961Z,10.00
2023-10-29T02:26:00.532Z,10.00
2023-10-29T02:28:28.575Z,10.00
2023-10-29T02:30:56.217Z,10.00
2023-10-29T02:33:26.080Z,9.90
2023-10-29T02:35:56.322Z,9.90
2023-10-29T02:38:27.725Z,9.80
2023-10-29T02:40:55.620Z,9.80
2023-10-29T02:43:22.980Z,9.80
2023-10-29T02:45:50.375Z,9.70
2023-10-29T02:48:22.467Z,9.70
2023-10-29T02:50:53.091Z,9.70
2023-10-29T02:53:20.986Z,9.60
2023-10-29T02:55:49.941Z,9.60
2023-10-29T02:58:19.894Z,9.60
2023-10-29T03:00:49.656Z,9.60
2023-10-29T03:03:18.027Z,9.60
2023-10-29T03:05:56.843Z,9.50
2023-10-29T03:08:25.796Z,9.50
2023-10-29T03:10:56.651Z,9.40
2023-10-29T03:13:24.373Z,9.30
2023-10-29T03:15:51.693Z,9.30
2023-10-29T03:18:19.354Z,9.20
2023-10-29T03:20:49.989Z,9.30
2023-10-29T03:23:20.739Z,9.20
2023-10-29T03:25:48.601Z,9.30
2023-10-29T03:28:17.495Z,9.30
2023-10-29T03:30:44.946Z,9.20
2023-10-29T03:33:12.557Z,9.20
2023-10-29T03:35:40.021Z,9.20
2023-10-29T03:38:07.449Z,9.10
2023-10-29T03:40:43.680Z,9.00
2023-10-29T03:43:11.146Z,8.90
2023-10-29T03:45:38.658Z,8.70
2023-10-29T03:48:06.525Z,8.70
2023-10-29T03:50:34.582Z,8.60
2023-10-29T03:53:02.710Z,8.60
2023-10-29T03:55:32.702Z,8.50
2023-10-29T03:58:01.725Z,8.50
2023-10-29T04:00:31.974Z,8.50
2023-10-29T04:02:59.848Z,8.50
2023-10-29T04:05:27.864Z,8.60
2023-10-29T04:07:55.454Z,8.60
2023-10-29T04:10:23.340Z,8.70
2023-10-29T04:12:53.069Z,8.70
2023-10-29T04:15:22.384Z,8.60
2023-10-29T04:17:51.931Z,8.60
2023-10-29T04:20:19.372Z,8.60
2023-10-29T04:22:46.799Z,8.60
2023-10-29T04:25:14.284Z,8.50
2023-10-29T04:27:43.958Z,8.50
2023-10-29T04:30:12.006Z,8.50
2023-10-29T04:32:42.593Z,8.40
2023-10-29T04:35:10.266Z,8.40
2023-10-29T04:37:37.773Z,8.30
2023-10-29T04:40:05.696Z,8.30
2023-10-29T04:42:33.311Z,8.30
2023-10-29T04:45:03.217Z,8.30
2023-10-29T04:47:33.226Z,8.30
2023-10-29T04:50:00.887Z,8.30
2023-10-29T04:52:28.542Z,8.40
2023-10-29T04:54:56.330Z,8.30
2023-10-29T04:57:24.175Z,8.30
2023-10-29T04:59:51.623Z,8.30
2023-10-29T05:02:19.085Z,8.30
2023-10-29T05:04:46.847Z,8.20
2023-10-29T05:07:15.244Z,8.20
2023-10-29T05:09:43.241Z,8.10
2023-10-29T05:12:11.311Z,8.10
2023-10-29T05:14:38.875Z,8.00
2023-10-29T05:17:07.432Z,8.10
2023-10-29T05:19:35.420Z,8.10
2023-10-29T05:22:02.805Z,8.20
2023-10-29T05:24:33.349Z,8.20
2023-10-29T05:27:01.266Z,8.10
2023-10-29T05:29:29.373Z,8.10
2023-10-29T05:31:56.734Z,8.10
2023-10-29T05:34:24.216Z,8.10
2023-10-29T05:36:51.664Z,8.10
2023-10-29T05:39:19.752Z,8.10
2023-10-29T05:41:47.021Z,8.10
2023-10-29T05:44:15.685Z,8.10
2023-10-29T05:46:43.268Z,8.00
2023-10-29T05:49:12.137Z,8.00
2023-10-29T05:51:40.039Z,8.00
2023-10-29T05:54:08.619Z,8.00
2023-10-29T05:56:36.624Z,8.00
2023-10-29T05:59:05.799Z,7.90
2023-10-29T06:01:34.202Z,7.90
2023-10-29T06:04:01.793Z,7.90
2023-10-29T06:06:29.157Z,7.90
2023-10-29T06:08:58.800Z,7.80
2023-10-29T06:11:27.779Z,7.80
2023-10-29T06:13:58.207Z,7.90
2023-10-29T06:16:26.350Z,7.90
2023-10-29T06:18:55.162Z,8.00
2023-10-29T06:21:22.494Z,8.10
2023-10-29T06:23:50.650Z,8.20
2023-10-29T06:26:18.216Z,8.40
2023-10-29T06:28:48.650Z,8.40
2023-10-29T06:31:17.027Z,8.60
2023-10-29T06:33:46.789Z,8.70
2023-10-29T06:36:14.468Z,8.80
2023-10-29T06:38:44.491Z,8.80
2023-10-29T06:41:12.170Z,8.90
2023-10-29T06:43:39.614Z,9.00
2023-10-29T06:46:07.126Z,9.00
2023-10-29T06:48:34.794Z,9.10
2023-10-29T06:51:02.494Z,9.10
2023-10-29T06:53:30.254Z,9.20
2023-10-29T06:56:04.384Z,9.30
2023-10-29T06:58:32.602Z,9.40
2023-10-29T07:01:10.722Z,9.60
2023-10-29T07:03:44.194Z,9.60
2023-10-29T07:06:13.151Z,9.70
2023-10-29T07:08:40.412Z,9.80
2023-10-29T07:11:07.524Z,9.80
2023-10-29T07:13:36.307Z,9.90
2023-10-29T07:16:04.504Z,9.90
2023-10-29T07:18:32.337Z,9.90
2023-10-29T07:21:00.349Z,10.00
2023-10-29T07:23:27.437Z,10.00
2023-10-29T07:25:54.630Z,10.00
2023-10-29T07:28:22.096Z,10.00
2023-10-29T07:30:49.987Z,9.90
2023-10-29T07:33:17.194Z,9.90
2023-10-29T07:35:44.530Z,9.90
2023-10-29T07:38:11.651Z,9.90
2023-10-29T07:40:39.460Z,9.90
2023-10-29T07:43:07.650Z,9.90
2023-10-29T07:45:35.367Z,9.90
2023-10-29T07:48:02.931Z,9.90
2023-10-29T07:50:30.465Z,9.90
2023-10-29T07:52:57.892Z,10.00
2023-10-29T07:55:25.506Z,10.00
2023-10-29T07:57:53.015Z,10.10
2023-10-29T08:00:20.813Z,10.20
2023-10-29T08:02:49.447Z,10.30
2023-10-29T08:05:18.104Z,10.30
2023-10-29T08:07:46.176Z,10.40
2023-10-29T08:10:14.067Z,10.40
2023-10-29T08:12:41.725Z,10.40
2023-10-29T08:15:09.558Z,10.50
2023-10-29T08:17:36.824Z,10.50
2023-10-29T08:20:05.561Z,10.50
2023-10-29T08:22:32.998Z,10.60
2023-10-29T08:25:00.820Z,10.70
2023-10-29T08:27:28.027Z,10.90
2023-10-29T08:29:55.228Z,11.10
2023-10-29T08:32:22.530Z,11.30
2023-10-29T08:34:49.804Z,11.60
2023-10-29T08:37:18.713Z,11.80
2023-10-29T08:39:45.716Z,12.00
2023-10-29T08:42:12.891Z,12.10
2023-10-29T08:44:40.100Z,12.40
2023-10-29T08:47:07.412Z,12.50
2023-10-29T08:49:34.529Z,12.70
2023-10-29T08:52:01.799Z,12.70
2023-10-29T08:54:29.113Z,12.60
2023-10-29T08:56:56.571Z,12.50
2023-10-29T08:59:23.792Z,12.40
2023-10-29T09:01:51.049Z,12.30
2023-10-29T09:04:18.394Z,12.20
2023-10-29T09:06:45.690Z,12.10
2023-10-29T09:09:14.278Z,12.00
2023-10-29T09:11:44.660Z,12.00
2023-10-29T09:14:15.138Z,11.90
2023-10-29T09:16:43.319Z,11.90
2023-10-29T09:19:19.097Z,12.00
2023-10-29T09:21:47.877Z,12.00
2023-10-29T09:24:38.336Z,12.20
2023-10-29T09:27:05.938Z,12.40
2023-10-29T09:29:34.902Z,12.60
2023-10-29T09:32:08.321Z,12.90
2023-10-29T09:34:36.536Z,13.20
2023-10-29T09:37:03.823Z,13.70
2023-10-29T09:39:33.310Z,14.10
2023-10-29T09:42:09.835Z,14.40
2023-10-29T09:44:41.641Z,14.40
2023-10-29T09:47:18.689Z,14.50
2023-10-29T09:49:46.189Z,14.50
2023-10-29T09:52:15.095Z,14.60
2023-10-29T09:54:42.442Z,14.50
2023-10-29T09:57:09.709Z,14.50
2023-10-29T09:59:36.948Z,14.40
2023-10-29T10:02:04.712Z,14.30
2023-10-29T10:04:31.943Z,14.20
2023-10-29T10:07:00.772Z,14.20
2023-10-29T10:09:28.187Z,14.20
2023-10-29T10:12:07.736Z,14.20
2023-10-29T10:14:34.877Z,14.20
2023-10-29T10:17:10.024Z,14.30
2023-10-29T10:19:38.033Z,14.30
2023-10-29T10:22:05.693Z,14.30
2023-10-29T10:24:47.578Z,14.40
2023-10-29T10:27:15.965Z,14.40
2023-10-29T10:29:43.359Z,14.40
2023-10-29T10:32:10.732Z,14.40
2023-10-29T10:34:40.600Z,14.40
2023-10-29T10:37:07.791Z,14.40
2023-10-29T10:39:35.292Z,14.30
2023-10-29T10:42:04.889Z,14.30
2023-10-29T10:44:32.857Z,14.20
2023-10-29T10:47:01.551Z,14.00
2023-10-29T10:49:32.834Z,13.80
2023-10-29T10:52:02.860Z,13.60
2023-10-29T10:54:33.007Z,13.40
2023-10-29T10:57:01.300Z,13.50
2023-10-29T10:59:28.570Z,13.70
2023-10-29T11:01:56.678Z,14.00
2023-10-29T11:04:25.571Z,14.40
2023-10-29T11:06:53.226Z,14.60
2023-10-29T11:09:21.076Z,14.60
2023-10-29T11:11:54.723Z,14.70
2023-10-29T11:14:22.709Z,14.30
2023-10-29T11:16:55.207Z,14.10
2023-10-29T11:19:35.756Z,14.10
2023-10-29T11:22:28.765Z,14.10
2023-10-29T11:25:11.825Z,14.00
2023-10-29T11:27:39.703Z,14.00
2023-10-29T11:30:22.446Z,13.70
2023-10-29T11:33:13.918Z,13.60
2023-10-29T11:35:41.942Z,13.60
2023-10-29T11:38:34.579Z,13.70
2023-10-29T11:41:21.828Z,13.80
2023-10-29T11:44:24.078Z,13.80
2023-10-29T11:46:57.479Z,13.80
2023-10-29T11:49:25.423Z,13.70
2023-10-29T11:51:57.636Z,13.70
2023-10-29T11:54:25.288Z,13.70
2023-10-29T11:56:53.792Z,13.70
2023-10-29T11:59:21.040Z,13.70
2023-10-29T12:01:48.123Z,13.80
2023-10-29T12:04:15.484Z,13.80
2023-10-29T12:06:47.246Z,13.90
2023-10-29T12:09:21.744Z,13.90
2023-10-29T12:11:53.594Z,13.90
2023-10-29T12:14:41.303Z,14.00
2023-10-29T12:17:08.999Z,14.00
2023-10-29T12:19:43.468Z,14.00
2023-10-29T12:22:37.473Z,14.00
2023-10-29T12:25:04.975Z,14.00
2023-10-29T12:27:32.793Z,14.00
2023-10-29T12:30:00.262Z,14.00
2023-10-29T12:32:28.556Z,14.20
2023-10-29T12:34:57.737Z,14.30
2023-10-29T12:37:30.040Z,14.40
2023-10-29T12:40:01.281Z,14.50
2023-10-29T12:42:57.764Z,14.70
2023-10-29T12:45:32.991Z,14.80
2023-10-29T12:48:13.313Z,14.90
2023-10-29T12:50:54.460Z,15.20
2023-10-29T12:53:29.948Z,15.40
2023-10-29T12:55:59.503Z,15.40
2023-10-29T12:58:27.856Z,15.40
2023-10-29T13:00:58.072Z,15.40
2023-10-29T13:03:26.307Z,15.50
2023-10-29T13:05:56.065Z,15.30
2023-10-29T13:08:26.477Z,15.30
2023-10-29T13:10:54.233Z,15.40
2023-10-29T13:13:25.122Z,15.40
2023-10-29T13:15:53.246Z,15.60
2023-10-29T13:18:21.765Z,15.70
2023-10-29T13:20:51.652Z,15.60
2023-10-29T13:23:27.734Z,15.70
2023-10-29T13:28:45.802Z,16.20
2023-10-29T13:31:13.289Z,16.30
2023-10-29T13:33:40.868Z,16.00
2023-10-29T13:36:09.515Z,15.70
2023-10-29T13:38:41.656Z,15.40
2023-10-29T13:41:09.095Z,15.30
2023-10-29T13:43:39.704Z,15.30
2023-10-29T13:46:16.477Z,15.30
2023-10-29T13:48:49.009Z,15.30
2023-10-29T13:51:16.822Z,15.20
2023-10-29T13:53:50.500Z,15.30
2023-10-29T13:56:24.933Z,15.20
2023-10-29T13:58:57.666Z,15.20
2023-10-29T14:01:36.759Z,15.10
2023-10-29T14:04:04.213Z,15.00
2023-10-29T14:06:33.108Z,15.00
2023-10-29T14:09:00.703Z,14.90
2023-10-29T14:11:28.295Z,14.80
2023-10-29T14:13:57.405Z,14.70
2023-10-29T14:16:48.631Z,14.80
2023-10-29T14:19:18.870Z,14.80
2023-10-29T14:21:59.259Z,14.90
2023-10-29T14:24:29.415Z,14.80
2023-10-29T14:27:00.294Z,14.70
2023-10-29T14:29:33.513Z,14.60
2023-10-29T14:32:08.319Z,14.60
2023-10-29T14:34:37.378Z,14.50
2023-10-29T14:37:06.910Z,14.40
2023-10-29T14:39:35.512Z,14.40
2023-10-29T14:42:03.049Z,14.40
2023-10-29T14:44:31.109Z,14.30
2023-10-29T14:46:58.490Z,14.30
2023-10-29T14:49:25.586Z,14.20
2023-10-29T14:51:52.904Z,14.10
2023-10-29T14:54:20.228Z,14.00
2023-10-29T14:56:48.235Z,13.90
2023-10-29T14:59:15.523Z,13.80
2023-10-29T15:01:42.740Z,13.80
2023-10-29T15:04:10.010Z,13.70
2023-10-29T15:06:38.557Z,13.70
2023-10-29T15:09:06.648Z,13.70
2023-10-29T15:11:36.970Z,13.60
2023-10-29T15:14:06.639Z,13.50
2023-10-29T15:16:34.367Z,13.50
2023-10-29T15:19:04.651Z,13.30
2023-10-29T15:21:34.187Z,13.20
2023-10-29T15:24:03.175Z,13.20
2023-10-29T15:26:30.949Z,13.00
2023-10-29T15:28:59.017Z,12.90
2023-10-29T15:31:28.038Z,12.80
2023-10-29T15:34:03.735Z,12.80
2023-10-29T15:36:31.292Z,12.80
2023-10-29T15:39:00.181Z,12.80
2023-10-29T15:41:28.548Z,12.80
2023-10-29T15:44:00.569Z,12.80
2023-10-29T15:46:33.771Z,12.80
2023-10-29T15:49:04.313Z,12.80
2023-10-29T15:51:35.288Z,12.80
2023-10-29T15:54:03.038Z,12.80
2023-10-29T15:56:33.836Z,12.90
2023-10-29T15:59:02.010Z,12.80
2023-10-29T16:01:34.588Z,12.80
2023-10-29T16:04:06.422Z,12.80
2023-10-29T16:06:41.897Z,12.90
2023-10-29T16:09:12.057Z,12.90
2023-10-29T16:11:48.978Z,12.90
2023-10-29T16:14:18.374Z,13.00
2023-10-29T16:16:52.425Z,13.10
2023-10-29T16:19:31.515Z,13.10
2023-10-29T16:22:01.452Z,13.10
2023-10-29T16:24:58.480Z,13.20
2023-10-29T16:27:29.134Z,13.20
2023-10-29T16:30:02.340Z,13.20
2023-10-29T16:32:34.408Z,13.30
2023-10-29T16:35:04.750Z,13.30
2023-10-29T16:37:35.460Z,13.30
2023-10-29T16:40:07.776Z,13.30
2023-10-29T16:42:40.519Z,13.40
2023-10-29T16:45:15.278Z,13.40
2023-10-29T16:47:43.853Z,13.30
2023-10-29T16:50:12.524Z,13.30
2023-10-29T16:52:43.452Z,13.30
2023-10-29T16:55:13.662Z,13.30
2023-10-29T16:58:50.177Z,13.20
2023-10-29T17:01:19.890Z,13.20
2023-10-29T17:03:53.031Z,13.20
2023-10-29T17:06:21.053Z,13.20
2023-10-29T17:08:49.096Z,13.10
2023-10-29T17:11:17.414Z,13.10
2023-10-29T17:13:46.600Z,13.20
2023-10-29T17:16:16.021Z,13.30
2023-10-29T17:18:48.869Z,13.30
2023-10-29T17:21:17.861Z,13.40
2023-10-29T17:23:47.530Z,13.50
2023-10-29T17:26:24.432Z,13.50
2023-10-29T17:28:57.493Z,13.50
2023-10-29T17:31:29.488Z,13.40
2023-10-29T17:33:57.810Z,13.40
2023-10-29T17:36:30.949Z,13.40
2023-10-29T17:39:04.233Z,13.40
2023-10-29T17:41:37.951Z,13.40
2023-10-29T17:44:09.162Z,13.40
2023-10-29T17:46:42.590Z,13.30
2023-10-29T17:49:14.429Z,13.30
2023-10-29T17:51:46.922Z,13.20
2023-10-29T17:54:18.719Z,13.20
2023-10-29T17:56:50.949Z,13.20
2023-10-29T18:02:09.044Z,13.10
2023-10-29T18:04:59.115Z,13.00
2023-10-29T18:07:37.229Z,13.10
2023-10-29T18:10:06.008Z,13.00
2023-10-29T18:12:40.587Z,13.00
2023-10-29T18:15:10.390Z,13.00
2023-10-29T18:17:46.682Z,13.00
2023-10-29T18:22:59.747Z,12.90
2023-10-29T18:25:30.163Z,12.80
2023-10-29T18:27:57.539Z,12.80
2023-10-29T18:30:25.454Z,12.70
2023-10-29T18:32:55.707Z,12.70
2023-10-29T18:35:23.332Z,12.60
2023-10-29T18:37:56.079Z,12.60
2023-10-29T18:40:23.891Z,12.60
2023-10-29T18:42:55.669Z,12.60
2023-10-29T18:45:24.398Z,12.60
2023-10-29T18:47:56.687Z,12.60
2023-10-29T18:50:29.623Z,12.60
2023-10-29T18:53:04.507Z,12.60
2023-10-29T18:58:20.701Z,12.60
2023-10-29T19:00:53.718Z,12.50
2023-10-29T19:03:21.920Z,12.50
2023-10-29T19:05:49.964Z,12.50
2023-10-29T19:08:23.247Z,12.40
2023-10-29T19:10:53.558Z,12.40
2023-10-29T19:13:24.326Z,12.40
2023-10-29T19:15:52.922Z,12.30
2023-10-29T19:18:22.225Z,12.40
2023-10-29T19:20:49.828Z,12.30
2023-10-29T19:23:17.127Z,12.30
2023-10-29T19:25:44.412Z,12.30
2023-10-29T19:28:11.524Z,12.30
2023-10-29T19:30:52.492Z,12.30
2023-10-29T19:33:31.388Z,12.20
2023-10-29T19:35:59.305Z,12.20
2023-10-29T19:38:26.583Z,12.20
2023-10-29T19:40:58.853Z,12.10
2023-10-29T19:43:30.386Z,12.10
2023-10-29T19:45:59.242Z,12.10
2023-10-29T19:48:41.462Z,12.00
2023-10-29T19:51:12.662Z,12.10
2023-10-29T19:53:41.330Z,12.00
2023-10-29T19:56:22.503Z,12.00
2023-10-29T19:58:49.931Z,12.00
2023-10-29T20:01:22.372Z,11.90
2023-10-29T20:03:54.033Z,11.90
2023-10-29T20:06:23.360Z,11.90
2023-10-29T20:08:54.497Z,11.90
2023-10-29T20:11:22.878Z,11.90
2023-10-29T20:13:51.738Z,11.90
2023-10-29T20:16:23.908Z,11.90
2023-10-29T20:18:54.853Z,11.90
2023-10-29T20:21:24.748Z,11.90
2023-10-29T20:35:12.582Z,11.90
2023-10-29T20:37:42.458Z,11.80
2023-10-29T20:40:14.883Z,11.80
2023-10-29T20:42:43.096Z,11.70
2023-10-29T20:45:11.029Z,11.80
2023-10-29T20:47:39.004Z,11.70
2023-10-29T20:50:08.314Z,11.70
2023-10-29T20:52:36.083Z,11.70
2023-10-29T20:55:04.532Z,11.60
2023-10-29T20:57:32.265Z,11.60
2023-10-29T21:00:00.411Z,11.60
2023-10-29T21:02:28.011Z,11.50
2023-10-29T21:04:55.632Z,11.50
2023-10-29T21:07:23.870Z,11.50
2023-10-29T21:09:52.286Z,11.50
2023-10-29T21:12:20.509Z,11.50
2023-10-29T21:14:48.323Z,11.50
2023-10-29T21:17:16.441Z,11.50
2023-10-29T21:19:44.325Z,11.40
2023-10-29T21:22:12.344Z,11.40
2023-10-29T21:24:41.719Z,11.40
2023-10-29T21:27:09.813Z,11.40
2023-10-29T21:29:37.964Z,11.40
2023-10-29T21:32:07.880Z,11.40
2023-10-29T21:34:36.300Z,11.40
2023-10-29T21:37:04.212Z,11.40
2023-10-29T21:39:32.159Z,11.40
2023-10-29T21:42:03.144Z,11.30
2023-10-29T21:44:30.606Z,11.30
2023-10-29T21:46:59.706Z,11.30
2023-10-29T21:49:29.127Z,11.30
2023-10-29T21:51:56.894Z,11.20
2023-10-29T21:54:25.758Z,11.20
2023-10-29T21:56:53.103Z,11.20
2023-10-29T21:59:21.200Z,11.20
2023-10-29T22:01:53.931Z,11.20
2023-10-29T22:04:22.330Z,11.20
2023-10-29T22:06:50.183Z,11.20
2023-10-29T22:09:20.221Z,11.20
2023-10-29T22:11:48.339Z,11.20
2023-10-29T22:14:16.157Z,11.20
2023-10-29T22:16:44.423Z,11.10
2023-10-29T22:19:13.189Z,11.10
2023-10-29T22:21:41.285Z,11.10
2023-10-29T22:24:10.048Z,11.10
2023-10-29T22:26:38.136Z,11.10
2023-10-29T22:29:06.740Z,11.10
2023-10-29T22:31:35.144Z,11.10
2023-10-29T22:34:02.730Z,11.10
2023-10-29T22:36:33.217Z,11.10
2023-10-29T22:39:00.834Z,11.10
2023-10-29T22:41:28.517Z,11.10
2023-10-29T22:43:55.835Z,11.10
2023-10-29T22:46:24.173Z,11.10
2023-10-29T22:48:52.472Z,11.10
2023-10-29T22:51:20.163Z,11.00
2023-10-29T22:53:47.918Z,11.10
2023-10-29T22:56:15.499Z,11.10
2023-10-29T22:58:43.179Z,11.10
2023-10-29T23:01:10.524Z,11.00
2023-10-29T23:03:38.173Z,11.00
2023-10-29T23:06:06.315Z,11.00
2023-10-29T23:08:34.852Z,11.00
2023-10-29T23:11:03.122Z,11.00
2023-10-29T23:13:30.643Z,10.90
2023-10-29T23:15:57.948Z,10.90
2023-10-29T23:18:25.966Z,10.90
2023-10-29T23:20:53.803Z,10.90
2023-10-29T23:23:21.255Z,10.90
2023-10-29T23:25:48.484Z,10.90
2023-10-29T23:28:23.082Z,10.80
2023-10-29T23:31:02.014Z,10.80
2023-10-29T23:33:29.692Z,10.80
2023-10-29T23:35:57.058Z,10.80
2023-10-29T23:38:24.456Z,10.80
2023-10-29T23:40:51.630Z,10.80
2023-10-29T23:43:19.013Z,10.80
2023-10-29T23:45:46.572Z,10.80
2023-10-29T23:48:14.790Z,10.80
2023-10-29T23:50:42.082Z,10.80
2023-10-29T23:53:09.579Z,10.80
2023-10-29T23:55:36.859Z,10.70
2023-10-29T23:58:04.102Z,10.80
